TFM - Tactical Decision Aid
ID: Runway Winds: CIG/VIS Threshold:

KDTW - Detroit Metro/Wayne, MI, US

Updated at: 1109 UTC 23 Jun 2021
Latest TAF at: 0903 UTC 23 Jun 2021

TAF Board

Time<<24/00Z 24/01Z 24/02Z 24/03Z 24/04Z 24/05Z 24/06Z 24/07Z 24/08Z 24/09Z 24/10Z 24/11Z 24/12Z>>
Type PRVL PRVL PRVL PRVL PRVL PRVL PRVL PRVL PRVL PRVL PRVL PRVL
VIS >6 >6 >6 >6 >6 >6 >6 >6 >6 >6 >6 >6
CIG 70 100 100 100 100 100 100 100 100 100 100 100
Cover OVC BKN BKN BKN BKN BKN BKN BKN BKN BKN BKN BKN
FltCat VFR VFR VFR VFR VFR VFR VFR VFR VFR VFR VFR VFR
WX -- -- -- -- -- -- -- -- -- -- -- --
WDir 220 200 200 200 200 200 200 200 200 200 200 200
WSpd 10 5 5 5 5 5 5 5 5 5 5 5
WGst -- -- -- -- -- -- -- -- -- -- -- --

TDA Impact Legend

  None Marginal Slight Moderate High
Visibility (sm) >5 3≤X≤5 1≤X<3 0.5≤X<1 <0.5
Ceiling (100 ft) >30 10≤X≤30 4≤X<10 2≤X<4 <2
Wind Speed (kt) <15 15≤X<25 25≤X<30 ≥30
Wind Gust (kt) <15 15≤X<25 25≤X<35 ≥35
Weather No Wx Reported VCTS -TS,-FZRA TS,FZRA +TS,+FZRA
TAF
KDTW 230903Z 2309/2412 22005KT P6SM BKN070
  FM231600 22010KT P6SM OVC070
  FM240100 20005KT P6SM BKN100


Radar Display
Forecast Discussion